Time;durP1;ratioP1;P1;durP2;ratioP2;P2;SDS_P1;SDS_P2;PMS_P1;PMS_P2;Temp;Humidity;BMP_temperature;BMP_pressure;BME280_temperature;BME280_humidity;BME280_pressure;Samples;Min_cycle;Max_cycle;Signal;HPM_P1;HPM_P2
2020/12/24 00:02:23;;;;;;;1.48;0.60;;;11.80;99.90;;;;;;5011956;28;20123;-63
2020/12/24 00:04:49;;;;;;;1.83;0.63;;;11.80;99.90;;;;;;5010822;28;20049;-63
2020/12/24 00:07:15;;;;;;;1.30;0.60;;;11.80;99.90;;;;;;5011765;28;20034;-63
2020/12/24 00:09:41;;;;;;;1.65;0.70;;;11.80;99.90;;;;;;5011741;28;20030;-63
2020/12/24 00:12:07;;;;;;;3.00;0.68;;;11.80;99.90;;;;;;5012032;28;20045;-63
2020/12/24 00:14:33;;;;;;;2.67;0.70;;;11.70;99.90;;;;;;5011566;28;20053;-63
2020/12/24 00:16:59;;;;;;;3.80;0.98;;;11.70;99.90;;;;;;5011773;28;20030;-63
2020/12/24 00:19:24;;;;;;;3.42;0.80;;;11.70;99.90;;;;;;5012000;28;20405;-63
2020/12/24 00:21:50;;;;;;;3.05;0.68;;;11.70;99.90;;;;;;5011593;28;20054;-63
2020/12/24 00:24:16;;;;;;;1.55;0.75;;;11.70;99.90;;;;;;5011779;28;20092;-62
2020/12/24 00:26:43;;;;;;;1.80;0.80;;;11.60;99.90;;;;;;5011930;28;20030;-62
2020/12/24 00:29:10;;;;;;;3.40;0.63;;;11.70;99.90;;;;;;4994148;28;20026;-62
2020/12/24 00:31:39;;;;;;;0.85;0.55;;;11.60;99.90;;;;;;5011748;28;20030;-62
2020/12/24 00:34:07;;;;;;;2.38;0.77;;;11.60;99.90;;;;;;5010385;28;20034;-62
2020/12/24 00:36:33;;;;;;;3.00;0.70;;;11.60;99.90;;;;;;5012326;28;20034;-62
2020/12/24 00:39:00;;;;;;;5.97;0.65;;;11.60;99.90;;;;;;5015105;28;20030;-62
2020/12/24 00:41:26;;;;;;;1.83;0.52;;;11.50;99.90;;;;;;5014977;28;20104;-62
2020/12/24 00:43:53;;;;;;;4.78;0.93;;;11.50;99.90;;;;;;5013688;28;20038;-62
2020/12/24 00:46:19;;;;;;;2.22;0.63;;;11.40;99.90;;;;;;5015265;28;20064;-63
2020/12/24 00:48:45;;;;;;;3.40;0.90;;;11.50;99.90;;;;;;5013532;28;20072;-62
2020/12/24 00:51:11;;;;;;;5.20;0.80;;;11.40;99.90;;;;;;5013946;28;20030;-63
2020/12/24 00:53:38;;;;;;;1.35;0.57;;;11.40;99.90;;;;;;5014728;28;20026;-63
2020/12/24 00:56:05;;;;;;;2.88;0.90;;;11.40;99.90;;;;;;5014800;28;20022;-63
2020/12/24 00:58:31;;;;;;;1.77;0.60;;;11.20;99.90;;;;;;5014527;28;20034;-63
2020/12/24 01:00:57;;;;;;;3.85;0.88;;;11.30;99.90;;;;;;5014914;28;20033;-63
2020/12/24 01:03:23;;;;;;;2.28;0.60;;;11.30;99.90;;;;;;5014889;28;20033;-63
2020/12/24 01:05:49;;;;;;;3.25;0.70;;;11.30;99.90;;;;;;5014682;28;20026;-63
2020/12/24 01:08:15;;;;;;;2.72;0.70;;;11.40;99.90;;;;;;5014552;28;20045;-63
2020/12/24 01:10:41;;;;;;;3.17;1.33;;;11.40;99.90;;;;;;5013205;28;20026;-63
2020/12/24 01:13:07;;;;;;;1.42;0.60;;;11.30;99.90;;;;;;5014077;28;20096;-63
2020/12/24 01:15:34;;;;;;;2.55;0.68;;;11.40;99.90;;;;;;5014251;28;20034;-63
2020/12/24 01:18:00;;;;;;;4.43;0.90;;;11.30;99.90;;;;;;4997195;28;20129;-63
2020/12/24 01:20:26;;;;;;;3.72;0.50;;;11.40;99.90;;;;;;4997106;28;20105;-63
2020/12/24 01:22:52;;;;;;;4.45;1.02;;;11.30;99.90;;;;;;5013177;28;20030;-63
2020/12/24 01:25:18;;;;;;;5.07;0.60;;;11.30;99.90;;;;;;5014187;28;20038;-63
2020/12/24 01:27:44;;;;;;;2.05;0.75;;;11.30;99.90;;;;;;5014263;28;20037;-62
2020/12/24 01:30:09;;;;;;;3.80;1.00;;;11.30;99.90;;;;;;5014397;28;20105;-62
2020/12/24 01:32:35;;;;;;;2.85;0.77;;;11.30;99.90;;;;;;5013023;28;20081;-62
2020/12/24 01:35:02;;;;;;;5.22;0.90;;;11.30;99.90;;;;;;5014379;28;20030;-62
2020/12/24 01:37:27;;;;;;;2.58;1.05;;;11.30;99.90;;;;;;5014325;28;20038;-62
2020/12/24 01:39:54;;;;;;;3.10;0.50;;;11.30;99.90;;;;;;5013746;28;20026;-62
2020/12/24 01:42:19;;;;;;;5.25;1.02;;;11.30;99.90;;;;;;5013837;28;20038;-62
2020/12/24 01:44:48;;;;;;;5.03;1.10;;;11.40;99.90;;;;;;5013788;28;20052;-62
2020/12/24 01:47:15;;;;;;;1.50;0.60;;;11.30;99.90;;;;;;5013920;28;20041;-62
2020/12/24 01:49:41;;;;;;;3.35;0.75;;;11.30;99.90;;;;;;5013834;28;20105;-62
2020/12/24 01:52:36;;;;;;;4.47;1.35;;;11.20;99.90;;;;;;5012688;28;20025;-62
2020/12/24 01:55:06;;;;;;;3.92;1.23;;;11.20;99.90;;;;;;5013727;28;20108;-62
2020/12/24 01:57:33;;;;;;;2.97;0.73;;;11.10;99.90;;;;;;5014058;28;20042;-62
2020/12/24 01:59:59;;;;;;;4.00;0.85;;;11.10;99.90;;;;;;5012416;28;20030;-62
2020/12/24 02:02:25;;;;;;;4.95;0.73;;;11.10;99.90;;;;;;5012576;28;20107;-62
2020/12/24 02:04:51;;;;;;;1.67;0.65;;;11.20;99.90;;;;;;5013398;28;20017;-62
2020/12/24 02:07:18;;;;;;;2.83;1.30;;;11.20;99.90;;;;;;5012147;28;20053;-62
2020/12/24 02:09:49;;;;;;;3.67;0.77;;;11.20;99.90;;;;;;5012032;28;20125;-62
2020/12/24 02:12:15;;;;;;;2.88;0.73;;;11.30;99.90;;;;;;5013673;28;20034;-62
2020/12/24 02:14:42;;;;;;;3.20;0.63;;;11.30;99.90;;;;;;5028231;28;20045;-62
2020/12/24 02:17:09;;;;;;;7.45;1.15;;;11.20;99.90;;;;;;5013536;28;20038;-62
2020/12/24 02:19:36;;;;;;;3.85;0.80;;;11.20;99.90;;;;;;5013109;28;20030;-61
2020/12/24 02:22:03;;;;;;;4.25;1.13;;;11.20;99.90;;;;;;5012246;28;20080;-61
2020/12/24 02:24:29;;;;;;;6.18;1.13;;;11.10;99.90;;;;;;5013124;28;20030;-62
2020/12/24 02:26:55;;;;;;;1.20;0.40;;;11.10;99.90;;;;;;5013079;28;20121;-61
2020/12/24 02:29:21;;;;;;;5.13;0.80;;;11.20;99.90;;;;;;5013309;28;20037;-62
2020/12/24 02:31:48;;;;;;;8.55;1.42;;;11.10;99.90;;;;;;5011901;28;20033;-63
2020/12/24 02:34:14;;;;;;;4.90;1.15;;;11.10;99.90;;;;;;5012912;28;20128;-63
2020/12/24 02:36:41;;;;;;;2.33;0.77;;;11.10;99.90;;;;;;5012792;28;20030;-62
2020/12/24 02:39:08;;;;;;;4.38;1.02;;;10.90;99.90;;;;;;5012909;28;20041;-62
2020/12/24 02:41:34;;;;;;;5.88;1.20;;;10.90;99.90;;;;;;5013079;28;20044;-62
2020/12/24 02:44:00;;;;;;;6.38;1.58;;;10.80;99.90;;;;;;5012749;28;20025;-62
2020/12/24 02:46:27;;;;;;;2.63;0.70;;;10.70;99.90;;;;;;5013064;28;20029;-62
2020/12/24 02:48:52;;;;;;;6.57;0.88;;;10.80;99.90;;;;;;5012847;28;20057;-62
2020/12/24 02:51:18;;;;;;;2.75;0.65;;;10.70;99.90;;;;;;5012913;28;20065;-62
2020/12/24 02:53:44;;;;;;;4.20;0.93;;;10.70;99.90;;;;;;5012577;28;20033;-62
2020/12/24 02:56:10;;;;;;;3.55;0.75;;;10.60;99.90;;;;;;5012572;28;20026;-62
2020/12/24 02:58:36;;;;;;;1.45;0.30;;;10.50;99.90;;;;;;5012138;28;20025;-62
2020/12/24 03:01:02;;;;;;;8.68;1.10;;;10.60;99.90;;;;;;5012536;28;20470;-62
2020/12/24 03:03:28;;;;;;;3.33;0.90;;;10.50;99.90;;;;;;5012770;28;20038;-62
2020/12/24 03:05:54;;;;;;;3.83;0.63;;;10.50;99.90;;;;;;5011168;28;20030;-62
2020/12/24 03:08:20;;;;;;;4.47;0.75;;;10.50;99.90;;;;;;5011527;28;20058;-62
2020/12/24 03:10:47;;;;;;;7.43;1.60;;;10.50;99.90;;;;;;5012403;28;20022;-62
2020/12/24 03:13:13;;;;;;;2.83;1.20;;;10.40;99.90;;;;;;5012465;28;20048;-62
2020/12/24 03:15:39;;;;;;;4.35;1.08;;;10.50;99.90;;;;;;5012603;28;20045;-63
2020/12/24 03:18:05;;;;;;;5.60;0.80;;;10.40;99.90;;;;;;5012641;28;20045;-62
2020/12/24 03:20:31;;;;;;;4.93;1.13;;;10.40;99.90;;;;;;5012647;28;20061;-63
2020/12/24 03:22:57;;;;;;;4.05;1.05;;;10.40;99.90;;;;;;5012038;28;20026;-62
2020/12/24 03:25:23;;;;;;;8.65;2.00;;;10.40;99.90;;;;;;5012537;28;20030;-63
2020/12/24 03:27:48;;;;;;;3.85;0.70;;;10.40;99.90;;;;;;5012415;28;20096;-63
2020/12/24 03:30:14;;;;;;;5.47;0.75;;;10.20;99.90;;;;;;5012484;28;20038;-62
2020/12/24 03:32:40;;;;;;;2.65;0.50;;;10.20;99.90;;;;;;5010890;28;20034;-63
2020/12/24 03:35:06;;;;;;;8.63;1.17;;;10.30;99.90;;;;;;5012505;28;20109;-63
2020/12/24 03:37:32;;;;;;;4.88;0.93;;;10.30;99.90;;;;;;5012023;28;20080;-63
2020/12/24 03:39:58;;;;;;;6.03;0.85;;;10.30;99.90;;;;;;5011921;28;20100;-63
2020/12/24 03:42:25;;;;;;;6.20;1.00;;;10.20;99.90;;;;;;5012096;28;20372;-62
2020/12/24 03:44:51;;;;;;;2.95;0.70;;;10.10;99.90;;;;;;5012032;28;20073;-63
2020/12/24 03:47:17;;;;;;;5.25;1.00;;;10.10;99.90;;;;;;5010918;28;20034;-63
2020/12/24 03:49:43;;;;;;;7.15;1.15;;;10.00;99.90;;;;;;5010565;28;20025;-63
2020/12/24 03:52:09;;;;;;;4.80;1.20;;;10.00;99.90;;;;;;5012074;28;20026;-63
2020/12/24 03:54:35;;;;;;;4.75;0.77;;;10.00;99.90;;;;;;5011817;28;20034;-62
2020/12/24 03:57:01;;;;;;;8.48;0.90;;;10.00;99.90;;;;;;5012171;28;20053;-62
2020/12/24 03:59:26;;;;;;;6.45;0.90;;;10.00;99.90;;;;;;5012304;28;20034;-62
2020/12/24 04:01:52;;;;;;;4.57;1.02;;;10.00;99.90;;;;;;5011749;28;20045;-63
2020/12/24 04:04:18;;;;;;;6.53;1.23;;;10.00;99.90;;;;;;5012260;28;20053;-63
2020/12/24 04:06:44;;;;;;;5.32;1.00;;;10.00;99.90;;;;;;5011818;28;20037;-62
2020/12/24 04:09:10;;;;;;;4.22;1.08;;;9.90;99.90;;;;;;5011865;28;20037;-62
2020/12/24 04:11:36;;;;;;;4.30;0.70;;;9.80;99.90;;;;;;5014118;28;20030;-62
2020/12/24 04:14:02;;;;;;;8.60;1.02;;;9.80;99.90;;;;;;5015188;28;20071;-63
2020/12/24 04:16:28;;;;;;;7.90;0.98;;;9.80;99.90;;;;;;5015768;28;20026;-63
2020/12/24 04:18:54;;;;;;;5.25;0.77;;;9.80;99.90;;;;;;5015337;28;20061;-62
2020/12/24 04:21:21;;;;;;;7.93;0.88;;;9.80;99.90;;;;;;5015409;28;20029;-62
2020/12/24 04:23:47;;;;;;;5.75;1.05;;;9.80;99.90;;;;;;5015391;28;20042;-63
2020/12/24 04:26:23;;;;;;;4.28;1.02;;;9.80;99.90;;;;;;5014205;28;20034;-62
2020/12/24 04:28:50;;;;;;;5.20;0.90;;;9.90;99.90;;;;;;5015467;28;20042;-62
2020/12/24 04:31:16;;;;;;;6.72;1.75;;;10.00;99.90;;;;;;5014318;28;20033;-62
2020/12/24 04:33:43;;;;;;;6.03;1.00;;;9.90;99.90;;;;;;5015055;28;20065;-63
2020/12/24 04:36:12;;;;;;;2.67;0.50;;;9.90;99.90;;;;;;5015130;28;20030;-63
2020/12/24 04:38:38;;;;;;;5.18;0.80;;;9.80;99.90;;;;;;5015019;28;20030;-63
2020/12/24 04:41:04;;;;;;;3.03;0.73;;;9.70;99.90;;;;;;5014982;28;20111;-63
2020/12/24 04:43:31;;;;;;;6.18;1.00;;;9.60;99.90;;;;;;5015263;28;20029;-63
2020/12/24 04:45:57;;;;;;;5.13;0.90;;;9.60;99.90;;;;;;5013657;28;20038;-63
2020/12/24 04:48:24;;;;;;;7.72;0.88;;;9.60;99.90;;;;;;5015198;28;20030;-63
2020/12/24 04:50:54;;;;;;;4.70;0.68;;;9.50;99.90;;;;;;5013834;28;20030;-63
2020/12/24 04:53:20;;;;;;;7.18;1.05;;;9.40;99.90;;;;;;5014998;28;20030;-62
2020/12/24 04:55:47;;;;;;;3.88;0.77;;;9.30;99.90;;;;;;5013665;28;20091;-62
2020/12/24 04:58:13;;;;;;;4.53;0.65;;;9.30;99.90;;;;;;5014762;28;20065;-62
2020/12/24 05:00:40;;;;;;;4.57;0.80;;;9.30;99.90;;;;;;5014611;28;20041;-62
2020/12/24 05:03:10;;;;;;;7.55;1.13;;;9.30;99.90;;;;;;5014798;28;20165;-62
2020/12/24 05:05:38;;;;;;;5.85;0.65;;;9.40;99.90;;;;;;5013863;28;20054;-62
2020/12/24 05:08:06;;;;;;;4.80;1.10;;;9.40;99.90;;;;;;5014658;28;20103;-62
2020/12/24 05:10:35;;;;;;;3.90;0.68;;;9.30;99.90;;;;;;5014617;28;20034;-62
2020/12/24 05:13:18;;;;;;;7.78;1.48;;;9.40;99.90;;;;;;5012912;28;20061;-62
2020/12/24 05:15:44;;;;;;;7.18;1.58;;;9.40;99.90;;;;;;5014460;28;20026;-62
2020/12/24 05:18:22;;;;;;;4.57;0.80;;;9.30;99.90;;;;;;5013310;28;20114;-62
2020/12/24 05:20:49;;;;;;;4.15;0.80;;;9.30;99.90;;;;;;5014271;28;20030;-62
2020/12/24 05:23:20;;;;;;;6.95;1.15;;;9.40;99.90;;;;;;5013790;28;20041;-63
2020/12/24 05:25:49;;;;;;;10.80;0.90;;;9.30;99.90;;;;;;5014178;28;20036;-63
2020/12/24 05:28:21;;;;;;;4.50;1.42;;;9.40;99.90;;;;;;5014189;28;20140;-62
2020/12/24 05:30:49;;;;;;;4.30;1.10;;;9.40;99.90;;;;;;5013068;28;20030;-62
2020/12/24 05:33:34;;;;;;;5.95;0.80;;;9.40;99.90;;;;;;5014026;28;20066;-62
2020/12/24 05:36:21;;;;;;;3.67;0.75;;;9.50;99.90;;;;;;5013135;28;20030;-62
2020/12/24 05:38:51;;;;;;;4.85;1.08;;;9.50;99.90;;;;;;5014020;28;20042;-62
2020/12/24 05:41:35;;;;;;;3.65;0.80;;;9.40;99.90;;;;;;5014272;28;20080;-62
2020/12/24 05:44:10;;;;;;;7.78;1.75;;;9.30;99.90;;;;;;5014145;28;20049;-63
2020/12/24 05:46:48;;;;;;;7.60;0.85;;;9.10;99.90;;;;;;5012605;28;20029;-63
2020/12/24 05:49:22;;;;;;;3.42;0.65;;;9.00;99.90;;;;;;5013841;28;20080;-63
2020/12/24 05:51:51;;;;;;;6.40;1.40;;;8.90;99.90;;;;;;5014042;28;20041;-64
2020/12/24 05:54:18;;;;;;;9.90;1.00;;;8.90;99.90;;;;;;5013859;28;20049;-59
2020/12/24 05:56:45;;;;;;;4.50;0.98;;;8.80;99.90;;;;;;5012463;28;20092;-65
2020/12/24 05:59:22;;;;;;;4.82;0.98;;;8.70;99.90;;;;;;5005020;28;20031;-60
2020/12/24 06:02:14;;;;;;;3.58;0.85;;;8.70;99.90;;;;;;4993547;28;20077;-61
2020/12/24 06:04:43;;;;;;;4.28;0.98;;;8.70;99.90;;;;;;4988472;28;20038;-61
2020/12/24 06:07:28;;;;;;;4.93;1.15;;;8.70;99.90;;;;;;4993651;28;20042;-61
2020/12/24 06:09:54;;;;;;;5.00;0.90;;;8.60;99.90;;;;;;4993816;28;20121;-63
2020/12/24 06:12:25;;;;;;;1.67;0.63;;;8.70;99.90;;;;;;4993917;28;20033;-63
2020/12/24 06:15:03;;;;;;;3.10;0.50;;;8.70;99.90;;;;;;4993227;28;20042;-63
2020/12/24 06:17:30;;;;;;;3.70;0.77;;;8.70;99.90;;;;;;4993606;28;20035;-63
2020/12/24 06:19:57;;;;;;;6.85;1.45;;;8.80;99.90;;;;;;4993662;28;20042;-63
2020/12/24 06:22:25;;;;;;;3.60;0.80;;;8.80;99.90;;;;;;4993547;28;20030;-62
2020/12/24 06:24:57;;;;;;;4.88;0.82;;;8.90;99.90;;;;;;4976386;28;20043;-63
2020/12/24 06:27:42;;;;;;;6.15;1.10;;;8.80;99.90;;;;;;4992529;28;20058;-63
2020/12/24 06:30:28;;;;;;;5.25;1.27;;;8.80;99.90;;;;;;4993527;28;20034;-64
2020/12/24 06:32:54;;;;;;;5.30;1.17;;;8.70;99.90;;;;;;4993145;28;20096;-63
2020/12/24 06:35:38;;;;;;;3.20;1.25;;;8.80;99.90;;;;;;4993195;28;20030;-63
2020/12/24 06:38:11;;;;;;;2.60;1.13;;;8.80;99.90;;;;;;4993497;28;20035;-61
2020/12/24 06:40:41;;;;;;;4.47;0.73;;;8.80;99.90;;;;;;4993176;28;20054;-61
2020/12/24 06:43:09;;;;;;;3.08;0.68;;;8.70;99.90;;;;;;4993270;28;20038;-63
2020/12/24 06:45:41;;;;;;;1.83;1.63;;;8.80;99.90;;;;;;4993154;28;20042;-61
2020/12/24 06:48:15;;;;;;;3.92;0.60;;;8.80;99.90;;;;;;4991731;28;20038;-61
2020/12/24 06:51:04;;;;;;;2.28;0.60;;;8.80;99.90;;;;;;4992958;28;20042;-62
2020/12/24 06:53:33;;;;;;;7.93;0.65;;;8.80;99.90;;;;;;4992964;28;20034;-62
2020/12/24 06:56:24;;;;;;;4.88;0.70;;;8.80;99.90;;;;;;4991874;28;20117;-59
2020/12/24 06:58:54;;;;;;;1.98;0.60;;;8.90;99.90;;;;;;4991652;28;20041;-62
2020/12/24 07:01:32;;;;;;;6.22;0.85;;;8.80;99.90;;;;;;4993159;28;20088;-60
2020/12/24 07:04:01;;;;;;;2.50;0.40;;;8.80;99.90;;;;;;4992651;28;20033;-58
2020/12/24 07:06:47;;;;;;;4.25;1.00;;;8.70;99.90;;;;;;4993126;28;20114;-68
2020/12/24 07:09:19;;;;;;;5.00;1.23;;;8.70;99.90;;;;;;4991395;28;20044;-57
2020/12/24 07:11:50;;;;;;;1.27;0.80;;;8.60;99.90;;;;;;4992996;28;20045;-57
2020/12/24 07:14:42;;;;;;;3.03;1.52;;;8.60;99.90;;;;;;4992428;28;20046;-58
2020/12/24 07:17:19;;;;;;;1.30;0.50;;;8.60;99.90;;;;;;4990588;28;20096;-57
2020/12/24 07:19:49;;;;;;;1.38;0.50;;;8.60;99.90;;;;;;4992216;28;20058;-55
2020/12/24 07:22:18;;;;;;;1.73;0.90;;;8.60;99.90;;;;;;4992782;28;20116;-53
2020/12/24 07:24:57;;;;;;;5.13;0.95;;;8.60;99.90;;;;;;4992899;28;20105;-58
2020/12/24 07:27:24;;;;;;;6.55;1.17;;;8.60;99.90;;;;;;4992840;28;20026;-58
2020/12/24 07:29:50;;;;;;;5.63;1.08;;;8.60;99.90;;;;;;4991864;28;20041;-58
2020/12/24 07:32:18;;;;;;;5.15;1.10;;;8.60;99.90;;;;;;4992524;28;20078;-57
2020/12/24 07:34:46;;;;;;;2.45;0.80;;;8.60;99.90;;;;;;4992597;28;20041;-57
2020/12/24 07:37:12;;;;;;;3.88;0.50;;;8.60;99.90;;;;;;4992469;28;20027;-58
2020/12/24 07:39:37;;;;;;;3.20;0.47;;;8.60;99.90;;;;;;4992696;28;20423;-57
2020/12/24 07:42:03;;;;;;;4.72;0.57;;;8.60;99.90;;;;;;4992341;28;20030;-56
2020/12/24 07:44:29;;;;;;;2.65;0.75;;;8.60;99.90;;;;;;4992980;28;20022;-59
2020/12/24 07:47:03;;;;;;;1.50;0.70;;;8.60;99.90;;;;;;4996786;28;20034;-57
2020/12/24 07:49:29;;;;;;;5.43;0.80;;;8.50;99.90;;;;;;4996671;28;20022;-57
2020/12/24 07:51:57;;;;;;;2.45;0.80;;;8.50;99.90;;;;;;4995156;28;20395;-56
2020/12/24 07:54:25;;;;;;;4.80;1.15;;;8.40;99.90;;;;;;4996639;28;20038;-57
2020/12/24 07:56:53;;;;;;;2.20;0.57;;;8.40;99.90;;;;;;4996625;28;20064;-56
2020/12/24 07:59:20;;;;;;;4.28;0.68;;;8.30;99.90;;;;;;4996263;28;20073;-54
2020/12/24 08:01:46;;;;;;;4.75;0.70;;;8.30;99.90;;;;;;4996509;28;20030;-56
2020/12/24 08:04:12;;;;;;;5.25;0.80;;;8.30;99.90;;;;;;4996151;28;20037;-57
2020/12/24 08:06:38;;;;;;;6.05;0.80;;;8.30;99.90;;;;;;4994946;28;20026;-59
2020/12/24 08:09:11;;;;;;;5.70;1.17;;;8.30;99.90;;;;;;4995799;28;20042;-58
2020/12/24 08:11:37;;;;;;;2.45;0.60;;;8.30;99.90;;;;;;4995874;28;20027;-56
2020/12/24 08:14:04;;;;;;;3.40;0.52;;;8.20;99.90;;;;;;4995499;28;20038;-57
2020/12/24 08:16:39;;;;;;;4.97;0.90;;;8.20;99.90;;;;;;4996183;28;20022;-57
2020/12/24 08:19:30;;;;;;;4.00;1.23;;;8.20;99.90;;;;;;4993983;28;20131;-57
2020/12/24 08:22:38;;;;;;;3.70;0.70;;;8.20;99.90;;;;;;4995976;28;20121;-59
2020/12/24 08:25:07;;;;;;;5.00;1.77;;;8.10;99.90;;;;;;4989809;28;20043;-57
2020/12/24 08:27:33;;;;;;;4.93;0.95;;;8.10;99.90;;;;;;4995556;28;20038;-56
2020/12/24 08:30:00;;;;;;;6.72;1.20;;;8.10;99.90;;;;;;4995213;28;20057;-57
2020/12/24 08:32:28;;;;;;;4.03;0.95;;;8.10;99.90;;;;;;4995596;28;20089;-58
2020/12/24 08:34:54;;;;;;;6.13;1.90;;;8.10;99.90;;;;;;4994131;28;20033;-58
2020/12/24 08:37:28;;;;;;;7.03;1.45;;;8.10;99.90;;;;;;4994710;28;20045;-57
2020/12/24 08:39:54;;;;;;;2.38;0.90;;;8.00;99.90;;;;;;4995483;28;20161;-58
2020/12/24 08:42:23;;;;;;;5.65;0.70;;;8.00;99.90;;;;;;4995261;28;20060;-58
2020/12/24 08:44:57;;;;;;;2.33;0.52;;;8.00;99.90;;;;;;4995339;28;20030;-57
2020/12/24 08:47:23;;;;;;;1.40;0.70;;;8.00;99.90;;;;;;4995224;28;20046;-55
2020/12/24 08:49:49;;;;;;;3.47;0.60;;;8.00;99.90;;;;;;4995009;28;20100;-58
2020/12/24 08:52:22;;;;;;;6.15;0.77;;;8.00;99.90;;;;;;4995042;28;20030;-58
2020/12/24 08:55:08;;;;;;;5.07;0.73;;;7.90;99.90;;;;;;4995522;28;20035;-58
2020/12/24 08:57:36;;;;;;;3.38;0.82;;;8.00;99.90;;;;;;4993056;28;20057;-58
2020/12/24 09:00:08;;;;;;;6.72;0.80;;;8.10;99.90;;;;;;4994472;28;20161;-58
2020/12/24 09:02:36;;;;;;;3.90;0.90;;;7.90;99.90;;;;;;4995343;28;20037;-58
2020/12/24 09:05:06;;;;;;;4.90;0.75;;;8.10;99.90;;;;;;4993738;28;20031;-58
2020/12/24 09:07:40;;;;;;;4.25;0.73;;;8.00;99.90;;;;;;4995265;28;20118;-58
2020/12/24 09:10:10;;;;;;;4.78;1.10;;;8.10;99.90;;;;;;4995145;28;20042;-58
2020/12/24 09:12:43;;;;;;;2.53;0.67;;;8.10;99.90;;;;;;4995249;28;20038;-57
2020/12/24 09:15:23;;;;;;;3.13;0.73;;;8.10;99.90;;;;;;4993630;28;20302;-60
2020/12/24 09:17:55;;;;;;;1.33;0.57;;;8.10;99.90;;;;;;4993685;28;20048;-56
2020/12/24 09:20:30;;;;;;;3.45;0.70;;;8.10;99.90;;;;;;4994470;28;20031;-58
2020/12/24 09:23:02;;;;;;;3.35;0.90;;;8.20;99.90;;;;;;4993806;28;20038;-57
2020/12/24 09:25:35;;;;;;;5.03;1.00;;;8.10;99.90;;;;;;4994796;28;20037;-56
2020/12/24 09:28:04;;;;;;;1.88;0.52;;;8.10;99.90;;;;;;4994952;28;20054;-58
2020/12/24 09:30:30;;;;;;;22.08;1.17;;;8.10;99.90;;;;;;4994682;28;20030;-58
2020/12/24 09:32:59;;;;;;;6.13;1.23;;;8.20;99.90;;;;;;4994429;28;20030;-57
2020/12/24 09:35:27;;;;;;;7.10;2.63;;;8.20;99.90;;;;;;4991898;28;20022;-57
2020/12/24 09:37:54;;;;;;;2.03;0.77;;;8.30;99.90;;;;;;4993324;28;20030;-58
2020/12/24 09:40:22;;;;;;;2.53;0.52;;;8.30;99.90;;;;;;4994240;28;20033;-55
2020/12/24 09:42:49;;;;;;;2.15;0.57;;;8.30;99.90;;;;;;4994553;28;20030;-57
2020/12/24 09:45:15;;;;;;;1.88;0.82;;;8.30;99.90;;;;;;4993189;28;20026;-56
2020/12/24 09:47:46;;;;;;;1.58;0.22;;;8.50;99.90;;;;;;4994292;28;20073;-57
2020/12/24 09:50:13;;;;;;;2.33;1.03;;;8.60;99.90;;;;;;4992975;28;20037;-56
2020/12/24 09:52:40;;;;;;;1.85;0.52;;;8.60;99.90;;;;;;4992852;28;20296;-57
2020/12/24 09:55:06;;;;;;;1.38;0.60;;;8.60;99.90;;;;;;4993991;28;20038;-57
2020/12/24 09:57:34;;;;;;;1.98;0.40;;;8.40;99.90;;;;;;4993933;28;20071;-56
2020/12/24 10:00:03;;;;;;;2.95;0.50;;;8.50;99.90;;;;;;4994049;28;20038;-57
2020/12/24 10:02:29;;;;;;;4.97;0.57;;;8.40;99.90;;;;;;4994141;28;20045;-57
2020/12/24 10:04:55;;;;;;;0.57;0.40;;;8.30;99.90;;;;;;4993942;28;20030;-57
2020/12/24 10:07:22;;;;;;;2.60;0.50;;;8.30;99.90;;;;;;4993919;28;20376;-55
2020/12/24 10:09:52;;;;;;;1.17;0.40;;;8.20;99.90;;;;;;4994006;28;20022;-57
2020/12/24 10:12:26;;;;;;;3.60;0.28;;;8.10;99.90;;;;;;4993880;28;20081;-55
2020/12/24 10:14:56;;;;;;;1.27;0.45;;;8.10;99.90;;;;;;4993471;28;20050;-57
2020/12/24 10:17:23;;;;;;;0.85;0.30;;;8.10;99.90;;;;;;4993553;28;20031;-53
2020/12/24 10:19:51;;;;;;;0.43;0.30;;;8.10;99.90;;;;;;4993386;28;20039;-57
2020/12/24 10:22:17;;;;;;;2.67;0.40;;;8.20;99.90;;;;;;4993712;28;20061;-56
2020/12/24 10:24:43;;;;;;;5.45;0.68;;;8.40;99.90;;;;;;4993859;28;20062;-53
2020/12/24 10:27:12;;;;;;;2.97;0.65;;;8.40;99.90;;;;;;4993558;28;20018;-57
2020/12/24 10:29:39;;;;;;;4.90;1.85;;;8.50;99.90;;;;;;4993082;28;20470;-55
2020/12/24 10:32:05;;;;;;;4.90;0.70;;;8.50;99.90;;;;;;4993492;28;20034;-56
2020/12/24 10:34:31;;;;;;;1.27;0.40;;;8.60;99.90;;;;;;4993146;28;20053;-70
2020/12/24 10:36:59;;;;;;;0.95;0.55;;;8.70;99.90;;;;;;4993604;28;20031;-50
2020/12/24 10:39:25;;;;;;;0.63;0.32;;;8.70;99.90;;;;;;4993229;28;20069;-55
2020/12/24 10:41:51;;;;;;;1.27;0.32;;;8.70;99.90;;;;;;4993509;28;20062;-56
2020/12/24 10:44:18;;;;;;;2.97;0.30;;;8.70;99.90;;;;;;4993395;28;20023;-57
2020/12/24 10:46:45;;;;;;;0.32;0.28;;;8.70;99.90;;;;;;4993417;28;20038;-54
2020/12/24 10:49:11;;;;;;;0.52;0.30;;;8.70;99.90;;;;;;4993021;28;20026;-57
2020/12/24 10:51:37;;;;;;;0.75;0.30;;;8.70;99.90;;;;;;4993137;28;20073;-55
2020/12/24 10:54:04;;;;;;;3.00;0.60;;;8.70;99.90;;;;;;4993053;28;20038;-58
2020/12/24 10:56:30;;;;;;;0.70;0.22;;;8.70;99.90;;;;;;4993059;28;20026;-56
2020/12/24 10:58:56;;;;;;;1.45;0.30;;;8.80;99.90;;;;;;4992955;28;20069;-53
2020/12/24 11:01:22;;;;;;;2.10;0.73;;;8.80;99.90;;;;;;4992920;28;20034;-57
2020/12/24 11:03:48;;;;;;;1.83;0.50;;;8.80;99.90;;;;;;4993170;28;20038;-56
2020/12/24 11:06:20;;;;;;;0.70;0.50;;;9.00;99.90;;;;;;4992946;28;20037;-54
2020/12/24 11:08:48;;;;;;;1.52;0.50;;;9.00;99.90;;;;;;4992962;28;20031;-57
2020/12/24 11:11:15;;;;;;;1.63;0.30;;;9.00;99.90;;;;;;4991541;28;20061;-55
2020/12/24 11:13:43;;;;;;;2.60;0.88;;;9.00;99.90;;;;;;4992578;28;20054;-56
2020/12/24 11:16:10;;;;;;;1.55;0.52;;;9.20;99.90;;;;;;4992911;28;20109;-53
2020/12/24 11:18:38;;;;;;;0.70;0.40;;;9.30;99.90;;;;;;4992736;28;20041;-55
2020/12/24 11:21:05;;;;;;;0.50;0.20;;;9.40;99.90;;;;;;4992455;28;20030;-55
2020/12/24 11:23:31;;;;;;;0.88;0.40;;;9.40;99.90;;;;;;4992431;28;20034;-56
2020/12/24 11:25:57;;;;;;;1.38;0.28;;;9.30;99.90;;;;;;4992805;28;20027;-59
2020/12/24 11:28:23;;;;;;;0.68;0.40;;;9.40;99.90;;;;;;4992485;28;20045;-54
2020/12/24 11:30:49;;;;;;;0.22;0.20;;;9.30;99.90;;;;;;4991567;28;20049;-59
2020/12/24 11:33:15;;;;;;;1.20;0.40;;;9.30;99.90;;;;;;4984880;28;20061;-55
2020/12/24 11:35:41;;;;;;;0.77;0.47;;;9.40;99.90;;;;;;4986481;28;20089;-57
2020/12/24 11:38:07;;;;;;;6.55;2.50;;;9.30;99.90;;;;;;5003553;28;20026;-65
2020/12/24 11:40:33;;;;;;;3.40;0.80;;;9.20;99.90;;;;;;4980983;28;20065;-57
2020/12/24 11:42:59;;;;;;;1.75;0.35;;;9.30;99.90;;;;;;4982328;28;20045;-55
2020/12/24 11:45:25;;;;;;;2.85;0.47;;;9.40;99.90;;;;;;4987240;28;20081;-57
2020/12/24 11:47:51;;;;;;;1.98;0.40;;;9.30;99.90;;;;;;4991388;28;20034;-58
2020/12/24 11:50:17;;;;;;;0.40;0.20;;;9.50;99.90;;;;;;4992425;28;20049;-57
2020/12/24 11:52:42;;;;;;;1.33;0.30;;;9.40;99.90;;;;;;4990690;28;20034;-57
2020/12/24 11:55:08;;;;;;;0.98;0.30;;;9.40;99.90;;;;;;4992479;28;20106;-58
2020/12/24 11:57:38;;;;;;;0.55;0.30;;;9.50;99.90;;;;;;4991802;28;20073;-55
2020/12/24 12:00:10;;;;;;;1.15;0.60;;;9.50;99.90;;;;;;4992281;28;20027;-54
2020/12/24 12:02:39;;;;;;;0.73;0.50;;;9.50;99.90;;;;;;4992243;28;20065;-58
2020/12/24 12:05:06;;;;;;;4.50;0.40;;;9.50;99.90;;;;;;4972853;28;20047;-57
2020/12/24 12:07:32;;;;;;;1.17;0.50;;;9.50;99.90;;;;;;4987621;28;20042;-57
2020/12/24 12:09:58;;;;;;;0.32;0.20;;;9.60;99.90;;;;;;4972950;28;20077;-58
2020/12/24 12:12:25;;;;;;;0.43;0.20;;;9.60;99.90;;;;;;4972707;28;20074;-58
2020/12/24 12:14:51;;;;;;;1.05;0.40;;;9.70;99.90;;;;;;4973802;28;20055;-57
2020/12/24 12:17:17;;;;;;;0.60;0.25;;;9.70;99.90;;;;;;5004293;28;20122;-58
2020/12/24 12:19:44;;;;;;;1.13;0.20;;;9.80;99.90;;;;;;4986640;28;20038;-58
2020/12/24 12:22:14;;;;;;;0.20;0.20;;;9.80;99.90;;;;;;4992286;28;20033;-58
2020/12/24 12:24:40;;;;;;;0.40;0.35;;;9.80;99.90;;;;;;4992349;28;20045;-58
2020/12/24 12:27:07;;;;;;;0.32;0.22;;;9.80;99.90;;;;;;4991891;28;20089;-58
2020/12/24 12:29:34;;;;;;;0.65;0.20;;;9.80;99.90;;;;;;4991994;28;20026;-57
2020/12/24 12:32:01;;;;;;;0.73;0.40;;;9.90;99.90;;;;;;4993139;28;20088;-57
2020/12/24 12:34:27;;;;;;;1.88;0.50;;;10.00;99.90;;;;;;4995524;28;20037;-59
2020/12/24 12:36:55;;;;;;;2.60;0.65;;;9.80;99.90;;;;;;4995314;28;20041;-57
2020/12/24 12:39:22;;;;;;;0.75;0.35;;;9.90;99.90;;;;;;4995592;28;20058;-58
2020/12/24 12:41:51;;;;;;;0.98;0.30;;;10.00;99.90;;;;;;4995769;28;20033;-58
2020/12/24 12:44:17;;;;;;;1.35;0.43;;;10.00;99.90;;;;;;4995709;28;20038;-58
2020/12/24 12:46:44;;;;;;;1.95;0.30;;;10.00;99.90;;;;;;4995556;28;20156;-58
2020/12/24 12:49:10;;;;;;;0.63;0.28;;;10.10;99.90;;;;;;4995170;28;20031;-58
2020/12/24 12:51:36;;;;;;;0.98;0.50;;;10.20;99.90;;;;;;4995388;28;20034;-58
2020/12/24 12:54:03;;;;;;;0.68;0.32;;;10.30;99.90;;;;;;4995360;28;20034;-58
2020/12/24 12:56:29;;;;;;;1.45;0.60;;;10.40;99.90;;;;;;4994112;28;20034;-57
2020/12/24 12:58:56;;;;;;;1.88;0.82;;;10.30;99.90;;;;;;4995464;28;20041;-58
2020/12/24 13:01:21;;;;;;;0.75;0.40;;;10.30;99.90;;;;;;4995212;28;20026;-58